createdAt,value
2023-05-20T00:01:20.283Z,13.51
2023-05-20T00:03:47.827Z,14.08
2023-05-20T00:06:15.555Z,13.71
2023-05-20T00:08:43.000Z,13.88
2023-05-20T00:11:10.602Z,13.60
2023-05-20T00:13:39.031Z,13.62
2023-05-20T00:16:07.948Z,13.59
2023-05-20T00:18:35.463Z,13.30
2023-05-20T00:21:02.928Z,13.65
2023-05-20T00:23:30.379Z,13.23
2023-05-20T00:26:00.439Z,13.18
2023-05-20T00:28:28.221Z,13.40
2023-05-20T00:30:55.863Z,12.96
2023-05-20T00:33:24.743Z,13.23
2023-05-20T00:35:52.203Z,13.28
2023-05-20T00:38:19.665Z,13.70
2023-05-20T00:40:47.128Z,13.50
2023-05-20T00:43:14.554Z,13.20
2023-05-20T00:45:42.467Z,13.30
2023-05-20T00:48:10.185Z,13.32
2023-05-20T00:50:39.085Z,13.17
2023-05-20T00:53:07.533Z,13.53
2023-05-20T00:55:35.882Z,13.22
2023-05-20T00:58:03.570Z,13.49
2023-05-20T01:00:31.186Z,13.60
2023-05-20T01:02:59.377Z,13.01
2023-05-20T01:05:27.053Z,12.70
2023-05-20T01:07:56.001Z,12.67
2023-05-20T01:10:25.281Z,12.94
2023-05-20T01:13:02.270Z,12.72
2023-05-20T01:15:31.144Z,12.75
2023-05-20T01:18:02.236Z,13.42
2023-05-20T01:20:32.382Z,13.02
2023-05-20T01:23:01.377Z,13.11
2023-05-20T01:25:29.016Z,12.79
2023-05-20T01:27:58.662Z,13.06
2023-05-20T01:30:30.498Z,13.19
2023-05-20T01:33:02.325Z,13.01
2023-05-20T01:35:30.816Z,13.31
2023-05-20T01:37:59.748Z,12.65
2023-05-20T01:40:29.152Z,12.87
2023-05-20T01:42:58.934Z,13.00
2023-05-20T01:45:26.935Z,13.45
2023-05-20T01:47:54.642Z,13.25
2023-05-20T01:50:22.319Z,13.69
2023-05-20T01:52:49.787Z,13.25
2023-05-20T01:55:17.306Z,13.33
2023-05-20T01:57:46.214Z,14.10
2023-05-20T02:00:14.289Z,13.55
2023-05-20T02:02:41.856Z,13.11
2023-05-20T02:05:10.354Z,13.03
2023-05-20T02:07:37.857Z,12.57
2023-05-20T02:10:06.117Z,12.48
2023-05-20T02:12:33.580Z,12.58
2023-05-20T02:15:02.654Z,12.51
2023-05-20T02:17:30.159Z,13.32
2023-05-20T02:19:57.612Z,12.91
2023-05-20T02:22:25.030Z,13.17
2023-05-20T02:24:52.464Z,13.09
2023-05-20T02:27:19.907Z,13.12
2023-05-20T02:29:47.361Z,12.67
2023-05-20T02:32:16.551Z,13.45
2023-05-20T02:34:43.990Z,12.83
2023-05-20T02:37:11.442Z,12.64
2023-05-20T02:39:38.875Z,12.42
2023-05-20T02:42:06.530Z,13.29
2023-05-20T02:44:33.966Z,13.45
2023-05-20T02:47:01.399Z,13.02
2023-05-20T02:49:30.164Z,13.46
2023-05-20T02:51:57.637Z,13.38
2023-05-20T02:54:25.059Z,13.51
2023-05-20T02:56:52.497Z,12.86
2023-05-20T02:59:19.886Z,13.45
2023-05-20T03:01:47.396Z,13.27
2023-05-20T03:04:14.958Z,12.73
2023-05-20T03:06:44.506Z,12.62
2023-05-20T03:09:12.116Z,13.50
2023-05-20T03:11:39.538Z,13.22
2023-05-20T03:14:06.972Z,12.92
2023-05-20T03:16:35.414Z,13.04
2023-05-20T03:19:03.040Z,13.04
2023-05-20T03:21:30.533Z,12.41
2023-05-20T03:23:59.304Z,12.97
2023-05-20T03:26:26.849Z,13.10
2023-05-20T03:28:54.294Z,13.75
2023-05-20T03:31:21.757Z,13.39
2023-05-20T03:33:49.266Z,12.29
2023-05-20T03:36:16.756Z,12.87
2023-05-20T03:38:44.186Z,12.87
2023-05-20T03:41:13.034Z,12.40
2023-05-20T03:43:40.611Z,12.52
2023-05-20T03:46:08.087Z,12.33
2023-05-20T03:48:35.642Z,12.52
2023-05-20T03:51:03.476Z,12.20
2023-05-20T03:53:30.989Z,12.66
2023-05-20T03:55:58.447Z,12.36
2023-05-20T03:58:29.205Z,12.91
2023-05-20T04:00:56.953Z,11.97
2023-05-20T04:03:24.614Z,12.12
2023-05-20T04:05:52.163Z,11.95
2023-05-20T04:08:19.833Z,11.83
2023-05-20T04:10:47.325Z,11.83
2023-05-20T04:13:15.022Z,12.97
2023-05-20T04:15:44.293Z,12.67
2023-05-20T04:18:12.056Z,12.57
2023-05-20T04:20:41.326Z,12.45
2023-05-20T04:23:08.833Z,12.57
2023-05-20T04:25:37.016Z,12.54
2023-05-20T04:28:04.888Z,12.44
2023-05-20T04:30:33.430Z,12.75
2023-05-20T04:33:03.571Z,11.86
2023-05-20T04:35:31.461Z,11.76
2023-05-20T04:37:59.328Z,12.13
2023-05-20T04:40:27.447Z,11.59
2023-05-20T04:42:55.832Z,11.58
2023-05-20T04:45:23.951Z,11.94
2023-05-20T04:47:53.215Z,12.35
2023-05-20T04:50:22.251Z,12.68
2023-05-20T04:52:50.671Z,12.03
2023-05-20T04:55:18.561Z,11.82
2023-05-20T04:57:46.467Z,12.43
2023-05-20T05:00:14.687Z,12.12
2023-05-20T05:02:42.213Z,12.06
2023-05-20T05:05:10.019Z,11.96
2023-05-20T05:07:39.757Z,12.85
2023-05-20T05:10:07.980Z,11.58
2023-05-20T05:12:35.502Z,11.63
2023-05-20T05:15:02.924Z,12.48
2023-05-20T05:17:30.449Z,11.94
2023-05-20T05:19:58.013Z,12.26
2023-05-20T05:22:25.435Z,12.60
2023-05-20T05:24:55.695Z,12.32
2023-05-20T05:27:23.845Z,12.31
2023-05-20T05:29:51.251Z,12.28
2023-05-20T05:32:18.768Z,12.27
2023-05-20T05:34:46.692Z,12.17
2023-05-20T05:37:14.141Z,12.07
2023-05-20T05:39:41.664Z,12.72
2023-05-20T05:42:10.464Z,13.01
2023-05-20T05:44:37.902Z,12.93
2023-05-20T05:47:06.729Z,12.97
2023-05-20T05:49:34.570Z,12.37
2023-05-20T05:52:02.054Z,12.02
2023-05-20T05:54:29.541Z,12.22
2023-05-20T05:56:57.426Z,12.03
2023-05-20T05:59:26.266Z,12.64
2023-05-20T06:01:53.766Z,12.85
2023-05-20T06:04:21.358Z,13.44
2023-05-20T06:06:49.352Z,12.76
2023-05-20T06:09:16.794Z,12.51
2023-05-20T06:11:44.450Z,12.87
2023-05-20T06:14:11.936Z,13.11
2023-05-20T06:16:40.761Z,13.52
2023-05-20T06:19:09.500Z,13.19
2023-05-20T06:21:37.289Z,12.47
2023-05-20T06:24:05.064Z,12.52
2023-05-20T06:26:32.605Z,12.38
2023-05-20T06:29:00.021Z,12.46
2023-05-20T06:31:27.611Z,12.77
2023-05-20T06:33:56.801Z,12.84
2023-05-20T06:36:24.249Z,13.14
2023-05-20T06:38:51.696Z,12.72
2023-05-20T06:41:19.102Z,13.21
2023-05-20T06:43:47.518Z,13.13
2023-05-20T06:46:15.089Z,12.85
2023-05-20T06:48:42.586Z,12.64
2023-05-20T06:51:11.367Z,13.21
2023-05-20T06:53:38.809Z,12.73
2023-05-20T06:56:06.898Z,12.96
2023-05-20T06:58:34.363Z,13.30
2023-05-20T07:01:01.892Z,13.13
2023-05-20T07:03:30.437Z,13.62
2023-05-20T07:05:57.918Z,13.44
2023-05-20T07:08:26.707Z,13.72
2023-05-20T07:10:56.491Z,13.98
2023-05-20T07:13:24.236Z,14.53
2023-05-20T07:15:51.706Z,14.10
2023-05-20T07:18:19.826Z,13.65
2023-05-20T07:20:47.307Z,13.74
2023-05-20T07:23:15.851Z,13.57
2023-05-20T07:25:44.732Z,14.82
2023-05-20T07:28:12.210Z,14.51
2023-05-20T07:30:39.677Z,14.43
2023-05-20T07:33:07.161Z,14.17
2023-05-20T07:35:34.857Z,13.77
2023-05-20T07:38:02.437Z,14.14
2023-05-20T07:40:29.852Z,14.44
2023-05-20T07:42:58.696Z,14.95
2023-05-20T07:45:26.171Z,14.98
2023-05-20T07:47:53.782Z,14.71
2023-05-20T07:50:21.507Z,14.62
2023-05-20T07:52:56.582Z,14.99
2023-05-20T07:55:26.346Z,14.54
2023-05-20T07:57:53.874Z,14.51
2023-05-20T08:00:23.062Z,14.38
2023-05-20T08:02:50.785Z,14.52
2023-05-20T08:05:18.560Z,14.88
2023-05-20T08:07:46.043Z,14.66
2023-05-20T08:10:13.486Z,14.56
2023-05-20T08:12:41.185Z,14.76
2023-05-20T08:15:09.552Z,14.89
2023-05-20T08:17:38.848Z,15.11
2023-05-20T08:20:08.091Z,15.30
2023-05-20T08:22:36.102Z,14.73
2023-05-20T08:25:04.072Z,15.84
2023-05-20T08:27:31.558Z,15.10
2023-05-20T08:30:00.583Z,14.72
2023-05-20T08:32:28.518Z,14.68
2023-05-20T08:34:57.300Z,14.91
2023-05-20T08:37:24.754Z,15.13
2023-05-20T08:39:52.181Z,15.48
2023-05-20T08:42:22.727Z,15.63
2023-05-20T08:44:51.889Z,16.19
2023-05-20T08:47:20.956Z,15.90
2023-05-20T08:49:48.778Z,15.86
2023-05-20T08:52:19.111Z,15.84
2023-05-20T08:54:51.545Z,15.87
2023-05-20T08:57:20.370Z,16.19
2023-05-20T08:59:48.199Z,15.56
2023-05-20T09:02:16.368Z,16.08
2023-05-20T09:04:44.001Z,15.49
2023-05-20T09:07:11.498Z,15.86
2023-05-20T09:09:41.244Z,15.76
2023-05-20T09:12:08.825Z,16.44
2023-05-20T09:14:36.416Z,16.23
2023-05-20T09:17:05.626Z,16.25
2023-05-20T09:19:34.493Z,15.89
2023-05-20T09:22:05.092Z,15.92
2023-05-20T09:24:32.728Z,15.94
2023-05-20T09:27:01.653Z,15.56
2023-05-20T09:29:29.172Z,15.86
2023-05-20T09:31:57.183Z,15.61
2023-05-20T09:34:24.754Z,15.66
2023-05-20T09:36:52.346Z,15.90
2023-05-20T09:39:30.766Z,16.19
2023-05-20T09:42:07.809Z,15.31
2023-05-20T09:44:36.480Z,15.60
2023-05-20T09:47:04.986Z,16.19
2023-05-20T09:49:33.989Z,16.56
2023-05-20T09:52:03.609Z,16.90
2023-05-20T09:54:33.322Z,16.07
2023-05-20T09:57:01.589Z,16.00
2023-05-20T09:59:32.464Z,16.11
2023-05-20T10:02:00.056Z,16.18
2023-05-20T10:04:29.331Z,16.32
2023-05-20T10:07:37.923Z,17.05
2023-05-20T10:10:21.593Z,17.12
2023-05-20T10:12:56.661Z,16.49
2023-05-20T10:15:30.106Z,16.12
2023-05-20T10:18:08.908Z,15.93
2023-05-20T10:20:46.229Z,16.45
2023-05-20T10:23:21.944Z,16.15
2023-05-20T10:25:53.255Z,15.93
2023-05-20T10:28:30.398Z,16.42
2023-05-20T10:30:59.729Z,16.53
2023-05-20T10:33:28.390Z,16.82
2023-05-20T10:35:58.933Z,16.13
2023-05-20T10:38:26.838Z,16.49
2023-05-20T10:40:54.310Z,16.43
2023-05-20T10:43:27.607Z,17.26
2023-05-20T10:45:57.624Z,16.82
2023-05-20T10:48:28.481Z,16.56
2023-05-20T10:50:58.041Z,16.67
2023-05-20T10:53:34.204Z,16.92
2023-05-20T10:56:02.416Z,16.41
2023-05-20T10:58:38.502Z,16.92
2023-05-20T11:01:06.193Z,16.62
2023-05-20T11:03:36.320Z,17.68
2023-05-20T11:06:12.407Z,17.81
2023-05-20T11:08:40.117Z,17.24
2023-05-20T11:11:08.138Z,16.98
2023-05-20T11:13:35.670Z,16.96
2023-05-20T11:16:04.809Z,16.58
2023-05-20T11:18:33.413Z,16.84
2023-05-20T11:21:03.291Z,17.67
2023-05-20T11:23:31.481Z,17.40
2023-05-20T11:25:59.309Z,17.12
2023-05-20T11:28:26.796Z,18.21
2023-05-20T11:30:54.607Z,17.60
2023-05-20T11:33:22.858Z,18.14
2023-05-20T11:35:53.198Z,18.46
2023-05-20T11:38:22.696Z,19.01
2023-05-20T11:40:53.742Z,18.56
2023-05-20T11:43:22.841Z,18.26
2023-05-20T11:45:55.219Z,18.24
2023-05-20T11:48:23.006Z,18.46
2023-05-20T11:50:50.511Z,18.37
2023-05-20T11:53:19.362Z,17.75
2023-05-20T11:55:50.052Z,18.17
2023-05-20T11:58:19.331Z,18.88
2023-05-20T12:00:52.826Z,18.52
2023-05-20T12:03:22.835Z,18.05
2023-05-20T12:05:51.234Z,18.33
2023-05-20T12:08:18.880Z,19.01
2023-05-20T12:10:47.986Z,18.24
2023-05-20T12:13:15.840Z,18.34
2023-05-20T12:15:43.422Z,19.79
2023-05-20T12:18:11.294Z,18.31
2023-05-20T12:20:40.153Z,18.50
2023-05-20T12:23:07.632Z,18.60
2023-05-20T12:25:35.125Z,18.46
2023-05-20T12:28:04.225Z,18.87
2023-05-20T12:30:32.012Z,18.56
2023-05-20T12:32:59.467Z,19.16
2023-05-20T12:35:38.934Z,19.09
2023-05-20T12:38:07.115Z,18.91
2023-05-20T12:40:35.757Z,18.27
2023-05-20T12:43:05.990Z,18.53
2023-05-20T12:45:33.761Z,18.38
2023-05-20T12:48:01.752Z,18.30
2023-05-20T12:50:29.705Z,18.54
2023-05-20T12:52:57.154Z,17.94
2023-05-20T12:55:24.602Z,17.93
2023-05-20T12:57:52.225Z,17.90
2023-05-20T13:00:20.981Z,17.68
2023-05-20T13:02:48.661Z,17.76
2023-05-20T13:05:16.393Z,18.01
2023-05-20T13:07:43.854Z,18.01
2023-05-20T13:10:12.151Z,18.50
2023-05-20T13:12:40.387Z,18.43
2023-05-20T13:15:09.060Z,18.66
2023-05-20T13:17:38.193Z,18.83
2023-05-20T13:20:06.641Z,18.62
2023-05-20T13:22:34.118Z,18.16
2023-05-20T13:25:01.682Z,18.09
2023-05-20T13:27:29.233Z,18.16
2023-05-20T13:29:56.741Z,18.22
2023-05-20T13:32:24.464Z,18.82
2023-05-20T13:34:53.259Z,18.78
2023-05-20T13:37:20.979Z,18.57
2023-05-20T13:39:49.471Z,18.18
2023-05-20T13:42:16.984Z,18.73
2023-05-20T13:44:44.419Z,18.45
2023-05-20T13:47:11.838Z,18.93
2023-05-20T13:49:39.286Z,19.31
2023-05-20T13:52:08.330Z,18.60
2023-05-20T13:54:36.001Z,19.17
2023-05-20T13:57:07.730Z,18.73
2023-05-20T13:59:35.663Z,19.16
2023-05-20T14:02:03.396Z,19.11
2023-05-20T14:04:31.544Z,19.38
2023-05-20T14:07:00.327Z,19.42
2023-05-20T14:09:29.158Z,18.95
2023-05-20T14:11:56.704Z,19.02
2023-05-20T14:14:24.147Z,19.09
2023-05-20T14:16:51.668Z,19.02
2023-05-20T14:19:19.240Z,19.83
2023-05-20T14:21:46.869Z,19.23
2023-05-20T14:24:14.320Z,19.06
2023-05-20T14:26:43.081Z,19.09
2023-05-20T14:29:10.784Z,19.41
2023-05-20T14:31:38.689Z,19.50
2023-05-20T14:34:06.142Z,19.32
2023-05-20T14:36:33.600Z,19.40
2023-05-20T14:39:01.049Z,19.41
2023-05-20T14:41:28.801Z,18.98
2023-05-20T14:43:57.723Z,18.93
2023-05-20T14:46:25.258Z,18.87
2023-05-20T14:48:52.717Z,18.97
2023-05-20T14:51:20.168Z,19.24
2023-05-20T14:53:47.716Z,19.30
2023-05-20T14:56:15.180Z,19.12
2023-05-20T14:58:42.687Z,19.53
2023-05-20T15:01:11.519Z,19.08
2023-05-20T15:03:39.324Z,19.32
2023-05-20T15:06:07.079Z,19.29
2023-05-20T15:08:34.517Z,19.52
2023-05-20T15:11:02.039Z,19.42
2023-05-20T15:13:29.525Z,19.94
2023-05-20T15:15:56.949Z,19.96
2023-05-20T15:18:25.787Z,20.08
2023-05-20T15:20:53.282Z,19.51
2023-05-20T15:23:20.740Z,19.41
2023-05-20T15:25:48.541Z,19.44
2023-05-20T15:28:19.504Z,19.37
2023-05-20T15:30:47.214Z,19.36
2023-05-20T15:33:14.808Z,19.64
2023-05-20T15:35:43.699Z,19.68
2023-05-20T15:38:11.180Z,19.86
2023-05-20T15:40:39.538Z,20.31
2023-05-20T15:43:07.098Z,20.26
2023-05-20T15:45:34.942Z,20.36
2023-05-20T15:48:02.487Z,20.43
2023-05-20T15:50:30.076Z,19.89
2023-05-20T15:52:58.868Z,19.87
2023-05-20T15:55:26.587Z,19.63
2023-05-20T15:57:54.259Z,19.66
2023-05-20T16:00:22.804Z,19.96
2023-05-20T16:02:50.595Z,19.82
2023-05-20T16:05:18.306Z,20.39
2023-05-20T16:07:46.670Z,20.03
2023-05-20T16:10:15.510Z,20.18
2023-05-20T16:12:42.982Z,20.00
2023-05-20T16:15:11.373Z,20.19
2023-05-20T16:17:39.237Z,19.89
2023-05-20T16:20:08.090Z,19.80
2023-05-20T16:22:35.781Z,19.68
2023-05-20T16:25:03.333Z,19.71
2023-05-20T16:27:32.863Z,20.10
2023-05-20T16:30:00.514Z,19.98
2023-05-20T16:32:28.104Z,20.10
2023-05-20T16:34:55.623Z,19.90
2023-05-20T16:37:23.086Z,19.54
2023-05-20T16:39:50.555Z,19.64
2023-05-20T16:42:18.132Z,19.95
2023-05-20T16:44:47.189Z,19.91
2023-05-20T16:47:14.632Z,20.16
2023-05-20T16:49:42.101Z,20.00
2023-05-20T16:52:09.638Z,19.95
2023-05-20T16:54:37.104Z,20.31
2023-05-20T16:57:05.568Z,20.15
2023-05-20T16:59:34.873Z,19.72
2023-05-20T17:02:03.747Z,19.82
2023-05-20T17:04:31.368Z,19.93
2023-05-20T17:07:01.625Z,19.98
2023-05-20T17:09:29.573Z,19.57
2023-05-20T17:11:57.039Z,20.08
2023-05-20T17:14:24.722Z,20.11
2023-05-20T17:16:52.316Z,20.07
2023-05-20T17:19:21.549Z,20.20
2023-05-20T17:21:48.988Z,19.85
2023-05-20T17:24:16.581Z,19.86
2023-05-20T17:26:44.112Z,19.92
2023-05-20T17:29:11.591Z,20.17
2023-05-20T17:31:38.994Z,20.18
2023-05-20T17:34:06.540Z,19.91
2023-05-20T17:36:35.502Z,19.85
2023-05-20T17:39:04.422Z,20.22
2023-05-20T17:41:31.894Z,20.11
2023-05-20T17:43:59.471Z,20.01
2023-05-20T17:46:26.941Z,20.09
2023-05-20T17:48:54.455Z,20.83
2023-05-20T17:51:21.902Z,20.95
2023-05-20T17:53:50.809Z,20.34
2023-05-20T17:56:18.269Z,20.58
2023-05-20T17:58:46.884Z,20.28
2023-05-20T18:01:15.018Z,20.25
2023-05-20T18:03:42.665Z,19.80
2023-05-20T18:06:10.485Z,20.02
2023-05-20T18:08:38.077Z,20.32
2023-05-20T18:11:06.957Z,20.25
2023-05-20T18:13:34.450Z,20.49
2023-05-20T18:16:01.977Z,20.55
2023-05-20T18:18:29.477Z,20.09
2023-05-20T18:20:56.924Z,20.49
2023-05-20T18:23:24.405Z,20.14
2023-05-20T18:25:51.883Z,20.52
2023-05-20T18:28:20.675Z,20.11
2023-05-20T18:30:48.125Z,20.08
2023-05-20T18:33:15.853Z,20.35
2023-05-20T18:35:43.409Z,20.14
2023-05-20T18:38:10.960Z,20.76
2023-05-20T18:40:38.465Z,20.58
2023-05-20T18:43:06.178Z,20.13
2023-05-20T18:45:35.085Z,20.55
2023-05-20T18:48:02.727Z,19.93
2023-05-20T18:50:30.562Z,20.41
2023-05-20T18:52:58.258Z,20.65
2023-05-20T18:55:26.303Z,20.99
2023-05-20T18:57:53.828Z,20.66
2023-05-20T19:00:21.473Z,20.72
2023-05-20T19:02:50.377Z,20.04
2023-05-20T19:05:18.029Z,20.35
2023-05-20T19:07:45.645Z,20.65
2023-05-20T19:10:13.123Z,20.45
2023-05-20T19:12:40.715Z,20.44
2023-05-20T19:15:09.490Z,20.13
2023-05-20T19:17:37.007Z,20.62
2023-05-20T19:20:07.694Z,20.33
2023-05-20T19:22:35.785Z,20.20
2023-05-20T19:25:03.685Z,19.95
2023-05-20T19:27:31.221Z,20.43
2023-05-20T19:29:58.698Z,20.67
2023-05-20T19:32:28.770Z,20.41
2023-05-20T19:34:59.098Z,20.08
2023-05-20T19:37:32.165Z,19.79
2023-05-20T19:39:59.662Z,19.74
2023-05-20T19:42:27.161Z,19.79
2023-05-20T19:44:57.424Z,19.55
2023-05-20T19:47:25.041Z,19.82
2023-05-20T19:49:52.658Z,20.05
2023-05-20T19:52:22.429Z,20.24
2023-05-20T19:54:51.310Z,19.81
2023-05-20T19:57:19.014Z,20.60
2023-05-20T19:59:46.775Z,20.01
2023-05-20T20:02:14.861Z,20.28
2023-05-20T20:04:42.897Z,19.96
2023-05-20T20:07:10.939Z,19.98
2023-05-20T20:09:38.418Z,20.11
2023-05-20T20:12:09.317Z,20.20
2023-05-20T20:14:36.921Z,20.14
2023-05-20T20:17:06.166Z,20.22
2023-05-20T20:19:35.281Z,20.17
2023-05-20T20:22:03.101Z,20.07
2023-05-20T20:24:30.683Z,20.05
2023-05-20T20:26:58.309Z,19.57
2023-05-20T20:29:27.238Z,19.99
2023-05-20T20:31:55.033Z,20.17
2023-05-20T20:34:22.537Z,20.32
2023-05-20T20:36:50.698Z,19.98
2023-05-20T20:39:19.863Z,20.04
2023-05-20T20:41:50.381Z,19.95
2023-05-20T20:44:21.050Z,19.73
2023-05-20T20:46:51.357Z,19.98
2023-05-20T20:49:19.605Z,19.81
2023-05-20T20:51:47.379Z,19.99
2023-05-20T20:54:15.340Z,19.86
2023-05-20T20:56:45.336Z,19.73
2023-05-20T20:59:13.605Z,20.07
2023-05-20T21:01:41.791Z,19.63
2023-05-20T21:04:13.381Z,19.55
2023-05-20T21:06:41.956Z,19.77
2023-05-20T21:09:11.542Z,20.03
2023-05-20T21:11:42.271Z,19.91
2023-05-20T21:14:10.044Z,19.73
2023-05-20T21:16:37.944Z,19.34
2023-05-20T21:19:06.067Z,19.45
2023-05-20T21:21:34.992Z,19.49
2023-05-20T21:24:02.507Z,19.30
2023-05-20T21:26:29.987Z,19.43
2023-05-20T21:28:57.437Z,18.89
2023-05-20T21:31:24.972Z,19.46
2023-05-20T21:33:52.591Z,19.22
2023-05-20T21:36:22.136Z,19.23
2023-05-20T21:38:50.903Z,19.07
2023-05-20T21:41:18.368Z,19.20
2023-05-20T21:43:45.820Z,19.36
2023-05-20T21:46:13.596Z,19.58
2023-05-20T21:48:41.124Z,19.89
2023-05-20T21:51:08.582Z,19.21
2023-05-20T21:53:36.090Z,18.88
2023-05-20T21:56:05.455Z,19.41
2023-05-20T21:58:33.212Z,19.32
2023-05-20T22:01:00.733Z,19.19
2023-05-20T22:03:28.399Z,19.01
2023-05-20T22:05:56.191Z,19.07
2023-05-20T22:08:23.689Z,19.28
2023-05-20T22:10:51.147Z,19.01
2023-05-20T22:13:20.597Z,18.80
2023-05-20T22:15:48.093Z,19.28
2023-05-20T22:18:15.692Z,19.05
2023-05-20T22:20:43.741Z,19.40
2023-05-20T22:23:11.247Z,19.40
2023-05-20T22:25:38.722Z,19.67
2023-05-20T22:28:06.196Z,19.57
2023-05-20T22:30:35.576Z,19.33
2023-05-20T22:33:03.070Z,19.35
2023-05-20T22:35:30.608Z,19.11
2023-05-20T22:38:00.159Z,19.23
2023-05-20T22:40:27.772Z,19.51
2023-05-20T22:42:55.246Z,19.52
2023-05-20T22:45:22.716Z,19.16
2023-05-20T22:47:51.688Z,19.42
2023-05-20T22:50:19.214Z,19.38
2023-05-20T22:52:46.675Z,19.58
2023-05-20T22:55:14.090Z,19.27
2023-05-20T22:57:41.578Z,19.43
2023-05-20T23:00:10.900Z,19.34
2023-05-20T23:02:41.478Z,19.49
2023-05-20T23:05:11.819Z,18.99
2023-05-20T23:07:39.418Z,19.69
2023-05-20T23:10:07.558Z,19.45
2023-05-20T23:12:35.001Z,19.35
2023-05-20T23:15:02.627Z,19.29
2023-05-20T23:17:30.216Z,19.10
2023-05-20T23:19:57.733Z,19.21
2023-05-20T23:22:26.794Z,19.20
2023-05-20T23:24:54.258Z,19.46
2023-05-20T23:27:21.717Z,18.91
2023-05-20T23:29:49.186Z,19.38
2023-05-20T23:32:16.612Z,19.59
2023-05-20T23:34:46.474Z,19.35
2023-05-20T23:37:14.226Z,19.12
2023-05-20T23:39:42.978Z,19.02
2023-05-20T23:42:10.474Z,19.04
2023-05-20T23:44:37.942Z,18.85
2023-05-20T23:47:07.545Z,19.01
2023-05-20T23:49:35.372Z,18.85
2023-05-20T23:52:03.439Z,18.35
2023-05-20T23:54:34.261Z,18.41
2023-05-20T23:57:03.235Z,18.93
2023-05-20T23:59:30.977Z,18.09
